Grand Mercury — HOOC — position and weather

sailwx.info

Track history (hours):
 
Tides and Currents Weather Stations Pressure Air Temp Water Temp Dewpoint Dewpoint Depression Visibility Wind Speed Wind Dir Waves Ship Positions

Grand Mercury

Last reported at 2017-Apr-24 05:12 UTC. Time now 2017-Apr-28 22:00 UTC.
Position N 25°32' W 115°33'.

Length 200 m; draft 9.2 m.

Type: Cargo ship. MMSI: 355649000.

Date/timePositionNaut miles runAvg speedWind from/ knotsBaromVisibWave heightAir tempDewpointWater temp
2017-Apr-24 05:12N 25°32' W 115°33'419.2
2017-Apr-24 04:59N 25°34' W 115°37'23319.2
2017-Apr-23 16:48N 27°43' W 119°14'618.7
2017-Apr-23 16:29N 27°47' W 119°20'918.6
2017-Apr-23 16:00N 27°51' W 119°28'3818.7
2017-Apr-23 13:58N 28°12' W 120°05'918.8
2017-Apr-23 13:29N 28°16' W 120°14'5018.8
2017-Apr-23 10:50N 28°41' W 121°03'3118.8
2017-Apr-23 09:10N 28°56' W 121°34'3319.0
2017-Apr-23 07:24N 29°12' W 122°08'  
Track history (hours):
 
Tides and Currents Weather Stations Pressure Air Temp Water Temp Dewpoint Dewpoint Depression Visibility Wind Speed Wind Dir Waves Ship Positions

Grand Mercury

Last reported at 2017-Apr-24 05:12 UTC. Time now 2017-Apr-28 22:00 UTC.
Position N 25°32' W 115°33'.

Length 200 m; draft 9.2 m.

Type: Cargo ship. MMSI: 355649000.

Date/timePositionNaut miles runAvg speedWind from/ knotsBaromVisibWave heightAir tempDewpointWater temp
2017-Apr-24 05:12N 25°32' W 115°33'419.2
2017-Apr-24 04:59N 25°34' W 115°37'23319.2
2017-Apr-23 16:48N 27°43' W 119°14'618.7
2017-Apr-23 16:29N 27°47' W 119°20'918.6
2017-Apr-23 16:00N 27°51' W 119°28'3818.7
2017-Apr-23 13:58N 28°12' W 120°05'918.8
2017-Apr-23 13:29N 28°16' W 120°14'5018.8
2017-Apr-23 10:50N 28°41' W 121°03'3118.8
2017-Apr-23 09:10N 28°56' W 121°34'3319.0
2017-Apr-23 07:24N 29°12' W 122°08'  

Dump ship's entire track history